Kezdőlap
METAR-TAF:

METAR-TAF

Repülőterek :

Ouagadougou, Burkina Faso

földrajzi szélesség: 12-21N, földrajzi hosszúság: 001-31W, magasság: 316 m

Jelenlegi meteorológiai megfigyelések

A jelentés 1 órával és 13 perccel ezelõtt készült, 09:00 UTC
Északkeleti szél 8 kt
Hőmérséklet 24°C
Páratartalom 14%
Légköri nyomás 1017 hPa
Látótávolság: 8000 m

METAR: DFFD 220900Z 04008KT 8000 NSC 24/M05 Q1017 NOSIG

Idő: 10:13 (10:13 UTC)

Előrejelzés

A jelentés 5 órával és 13 perccel ezelõtt készült, 05:00 UTC
Az előrejelzés 22-én 06 óra UTC és 23-én 12 óra UTC között érvényes
Keleti szél 10 kt
Látótávolság: 8000 m
22-én 06 óra UTC és 22-én 10 óra UTC között ideiglenes
Látótávolság: 4000 m
kiterjedt por
22-én 17 óra UTC és 22-én 20 óra UTC között ideiglenes
Látótávolság: 4000 m
kiterjedt por

TAF: DFFD 220500Z 2206/2312 08010KT 8000 NSC TEMPO 2206/2210 4000 DU TEMPO 2217/2220 4000 DU

Meteorológiai megfigyelések és előrejelzések több, mint 4000 repülőtéren (METAR és TAF jelentéseket).

A térképen piros és sárga pontok jelzik az elérhető meteorológiai állomásokat.

Mozgassa az egeret a pont fölött, hogy megjelenjen az állomás neve.

Azután kattintson az időjárási megfigyelések és előrejelzések megtekintéséhez.

A térkép megváltoztatása: kattintson a fekete keresztel jelölt zöld gombra ráközelítéshez, a vonallal jelölt zöld gombra távolításhoz, vagy a zöld nyilakra a szomszédos térképek eléréséhez.


METAR-TAF: